Latest Weather Observations for Coldstream

IDV60901

Issued at 8:11 pm EST Monday 22 April 2019 (issued every 10 minutes, with the page automatically refreshed every 10 minutes)

About weather observations | Map of Melbourne area stations | Latest observations for Melbourne area | Other Formats
Station Details ID: 086383 Name: COLDSTREAM Lat: -37.72 Lon: 145.41 Height: 83.0 m
Data from the previous 72 hours. | See also: Recent months at Coldstream
Date/Time
EST
Temp
°C
App
Temp
°C
Dew
Point
°C
Rel
Hum
%
Delta-T
°C
Wind Press
QNH
hPa
Press
MSL
hPa
Rain since
9am
mm
Dir  Spd
km/h
Gust
km/h
Spd
kts
Gust
kts
22/08:00pm 15.1 13.1 10.1 72 2.6 SSE 11 17 6 9 1027.3 1027.2 0.0
22/07:30pm 15.1 13.1 10.1 72 2.6 SSE 11 19 6 10 1027.0 1026.9 0.0
22/07:00pm 15.2 13.5 10.0 71 2.7 SSE 9 17 5 9 1026.9 1026.8 0.0
22/06:30pm 15.4 13.0 10.2 71 2.7 SE 13 24 7 13 1026.6 1026.5 0.0
22/06:00pm 15.4 12.6 10.0 70 2.8 SSE 15 24 8 13 1025.9 1025.9 0.0
22/05:30pm 15.5 13.5 10.1 70 2.8 SE 11 17 6 9 1025.6 1025.6 0.0
22/05:00pm 15.6 13.2 9.9 69 3.0 SE 13 20 7 11 1025.5 1025.5 0.0
22/04:30pm 15.9 13.0 9.8 67 3.2 SE 15 24 8 13 1025.5 1025.5 0.0
22/04:00pm 16.2 13.7 9.6 65 3.4 SE 13 20 7 11 1025.5 1025.5 0.0
22/03:30pm 16.2 13.0 9.8 66 3.4 SE 17 24 9 13 1025.6 1025.6 0.0
22/03:00pm 16.5 14.1 10.1 66 3.4 SE 13 24 7 13 1025.8 1025.8 0.0
22/02:30pm 15.9 13.4 9.8 67 3.2 SSE 13 24 7 13 1025.9 1025.9 0.0
22/02:00pm 16.2 14.2 10.3 68 3.1 SSE 11 19 6 10 1025.9 1025.9 0.0
22/01:30pm 16.1 14.5 10.2 68 3.1 SSE 9 17 5 9 1025.8 1025.8 0.0
22/01:00pm 16.0 14.0 10.3 69 3.0 SSE 11 17 6 9 1025.6 1025.6 0.0
22/12:30pm 15.8 13.5 10.6 71 2.8 SE 13 20 7 11 1025.6 1025.6 0.0
22/12:00pm 15.7 13.5 10.7 72 2.6 SSE 13 20 7 11 1025.7 1025.7 0.0
22/11:30am 15.8 14.0 11.0 73 2.6 SSE 11 17 6 9 1025.7 1025.7 0.0
22/11:00am 15.4 14.0 11.0 75 2.3 SSE 9 15 5 8 1025.5 1025.5 0.0
22/10:30am 15.2 13.5 11.2 77 2.1 SE 11 17 6 9 1025.4 1025.4 0.0
22/10:00am 15.4 14.9 12.2 81 1.7 SE 6 11 3 6 1025.4 1025.4 0.0
22/09:30am 14.9 14.6 12.8 87 1.2 S 6 11 3 6 1025.5 1025.5 0.0
22/09:00am 14.5 14.4 13.4 93 0.6 SSE 6 9 3 5 1025.3 1025.3 2.4
22/08:30am 14.0 13.9 13.2 95 0.4 SE 6 7 3 4 1025.2 1025.2 2.4
22/08:00am 14.0 14.7 13.5 97 0.3 SE 2 7 1 4 1025.1 1025.1 2.4
22/07:30am 13.9 13.7 13.6 98 0.2 ESE 7 11 4 6 1024.6 1024.6 2.4
22/07:00am 13.4 13.0 13.1 98 0.2 SE 7 11 4 6 1024.1 1024.1 2.4
22/06:30am 12.9 12.6 12.7 99 0.1 S 6 9 3 5 1024.2 1024.2 2.4
22/06:00am 13.5 14.6 13.5 100 0.0 CALM 0 0 0 0 1023.9 1023.9 2.4
22/05:30am 13.9 15.1 13.9 100 0.0 CALM 0 0 0 0 1023.5 1023.5 2.2
22/05:00am 14.0 14.9 14.0 100 0.0 SW 2 7 1 4 1023.2 1023.2 2.2
22/04:30am 14.0 13.9 14.0 100 0.0 SW 7 9 4 5 1022.9 1022.9 2.0
22/04:00am 13.9 15.1 13.9 100 0.0 CALM 0 0 0 0 1022.7 1022.7 2.0
22/03:30am 13.9 15.1 13.9 100 0.0 CALM 0 0 0 0 1022.5 1022.5 2.0
22/03:00am 13.8 14.9 13.6 99 0.1 CALM 0 0 0 0 1022.8 1022.8 2.0
22/02:30am 13.9 15.1 13.7 99 0.1 CALM 0 0 0 0 1023.1 1023.1 1.8
22/02:00am 14.1 14.6 13.9 99 0.1 WSW 4 6 2 3 1023.4 1023.4 1.6
22/01:30am 14.2 14.7 14.0 99 0.1 WNW 4 9 2 5 1023.4 1023.4 1.6
22/01:00am 14.5 14.7 14.3 99 0.1 SW 6 9 3 5 1023.4 1023.4 1.6
22/12:30am 14.6 14.7 14.4 99 0.1 W 7 9 4 5 1023.7 1023.7 1.6
22/12:00am 14.6 14.3 14.4 99 0.1 WSW 9 13 5 7 1023.4 1023.4 1.6
 
Date/Time
EST
Temp
°C
App
Temp
°C
Dew
Point
°C
Rel
Hum
%
Delta-T
°C
Wind Press
QNH
hPa
Press
MSL
hPa
Rain since
9am
mm
Dir  Spd
km/h
Gust
km/h
Spd
kts
Gust
kts
21/11:30pm 14.9 13.8 14.4 97 0.3 W 13 17 7 9 1023.1 1023.1 1.2
21/11:00pm 15.9 15.6 14.3 90 0.9 SSW 9 19 5 10 1023.2 1023.2 1.0
21/10:30pm 16.0 14.9 14.4 90 0.9 SSW 13 19 7 10 1022.9 1022.9 1.0
21/10:00pm 16.1 12.8 15.1 94 0.6 SW 26 37 14 20 1022.1 1022.1 1.0
21/09:30pm 16.6 15.7 15.8 95 0.5 SW 15 24 8 13 1021.6 1021.6 1.0
21/09:00pm 17.7 13.4 15.3 86 1.4 SW 32 43 17 23 1020.5 1020.5 0.6
21/08:49pm 19.4 16.8 13.8 70 3.2 W 20 37 11 20 1019.9 1019.9 0.4
21/08:30pm 20.6 21.1 14.9 70 3.4 W 6 9 3 5 1019.2 1019.2 0.0
21/08:00pm 21.5 20.5 14.6 65 4.1 W 13 28 7 15 1018.5 1018.5 0.0
21/07:30pm 24.0 22.6 13.5 52 6.1 WNW 13 28 7 15 1018.0 1018.0 0.0
21/07:00pm 20.9 22.1 13.8 64 4.1 CALM 0 0 0 0 1017.8 1017.8 0.0
21/06:30pm 22.1 23.2 13.5 58 5.0 CALM 0 0 0 0 1017.1 1017.0 0.0
21/06:00pm 23.9 23.6 13.2 51 6.2 N 7 9 4 5 1016.9 1016.8 0.0
21/05:30pm 25.1 24.0 13.0 47 7.0 NNW 11 17 6 9 1016.8 1016.7 0.0
21/05:00pm 25.6 23.2 12.8 45 7.4 N 17 26 9 14 1016.7 1016.6 0.0
21/04:30pm 26.0 23.6 12.8 44 7.7 N 17 26 9 14 1016.8 1016.7 0.0
21/04:00pm 26.2 23.8 12.6 43 7.9 N 17 24 9 13 1016.8 1016.7 0.0
21/03:30pm 26.3 24.7 12.7 43 7.9 N 13 24 7 13 1017.1 1017.0 0.0
21/03:00pm 26.1 24.0 12.5 42 7.9 N 15 24 8 13 1017.0 1016.9 0.0
21/02:30pm 26.7 23.5 12.0 40 8.5 N 20 33 11 18 1017.2 1017.1 0.0
21/02:00pm 27.0 24.4 11.9 39 8.7 N 17 24 9 13 1017.3 1017.2 0.0
21/01:30pm 27.0 23.3 11.5 38 8.9 N 22 37 12 20 1017.3 1017.2 0.0
21/01:00pm 27.0 23.9 11.5 38 8.9 NNW 19 30 10 16 1018.0 1018.0 0.0
21/12:30pm 26.8 23.2 11.7 39 8.7 NNW 22 35 12 19 1018.3 1018.3 0.0
21/12:00pm 27.0 23.5 12.3 40 8.5 N 22 33 12 18 1018.2 1018.2 0.0
21/11:32am 26.7 21.8 11.2 38 8.8 N 28 46 15 25 1018.2 1018.2 0.0
21/11:30am 26.9 22.9 11.8 39 8.7 N 24 37 13 20 1018.2 1018.2 0.0
21/11:00am 26.5 23.0 11.0 38 8.8 N 20 35 11 19 1018.6 1018.6 0.0
21/10:30am 26.4 23.4 10.5 37 8.9 N 17 28 9 15 1018.8 1018.8 0.0
21/10:00am 24.4 21.8 10.7 42 7.6 NNE 15 24 8 13 1018.8 1018.8 0.0
21/09:30am 24.1 20.7 10.7 43 7.5 NNE 19 30 10 16 1018.7 1018.7 0.0
21/09:00am 23.2 21.0 10.9 46 6.8 NNE 13 20 7 11 1018.7 1018.7 0.0
21/08:30am 22.2 20.7 10.7 48 6.3 NNE 9 15 5 8 1018.9 1018.9 0.0
21/08:00am 18.4 19.2 12.4 68 3.3 CALM 0 6 0 3 1019.1 1019.1 0.0
21/07:30am 18.2 17.5 10.1 59 4.3 NW 4 7 2 4 1018.8 1018.8 0.0
21/07:00am 19.8 18.1 9.7 52 5.4 NNE 9 15 5 8 1018.4 1018.4 0.0
21/06:30am 19.4 17.7 9.9 54 5.1 NNE 9 15 5 8 1018.3 1018.3 0.0
21/06:19am 19.1 17.6 11.9 63 4.0 NNE 11 20 6 11 1018.2 1018.2 0.0
21/06:00am 13.5 13.0 9.2 75 2.2 N 2 7 1 4 1018.2 1018.2 0.0
21/05:59am 13.6 13.0 9.1 74 2.3 N 2 7 1 4 1018.2 1018.2 0.0
21/05:30am 18.6 17.3 12.4 67 3.5 NNE 11 19 6 10 1018.0 1018.0 0.0
21/05:26am 16.7 16.4 14.5 87 1.3 NE 9 19 5 10 1017.9 1017.9 0.0
21/05:00am 11.1 10.7 9.9 92 0.6 S 2 7 1 4 1017.8 1017.8 0.0
21/04:30am 11.3 11.3 9.7 90 0.8 CALM 0 6 0 3 1017.8 1017.8 0.0
21/04:00am 11.4 11.5 10.0 91 0.7 CALM 0 0 0 0 1017.7 1017.7 0.0
21/03:30am 11.5 11.5 9.8 89 0.9 CALM 0 0 0 0 1018.0 1018.0 0.0
21/03:00am 12.4 12.5 10.3 87 1.1 CALM 0 0 0 0 1018.0 1018.0 0.0
21/02:30am 12.6 11.7 10.7 88 1.0 S 6 7 3 4 1018.3 1018.3 0.0
21/02:00am 12.1 12.3 10.7 91 0.7 CALM 0 4 0 2 1018.5 1018.5 0.0
21/01:30am 11.7 11.8 10.3 91 0.7 CALM 0 0 0 0 1018.6 1018.6 0.0
21/01:00am 11.6 10.5 9.9 89 0.9 SE 6 7 3 4 1018.7 1018.7 0.0
21/12:30am 12.0 12.2 10.4 90 0.8 CALM 0 0 0 0 1018.9 1018.9 0.0
21/12:00am 11.7 11.9 10.4 92 0.7 CALM 0 0 0 0 1019.2 1019.2 0.0
 
Date/Time
EST
Temp
°C
App
Temp
°C
Dew
Point
°C
Rel
Hum
%
Delta-T
°C
Wind Press
QNH
hPa
Press
MSL
hPa
Rain since
9am
mm
Dir  Spd
km/h
Gust
km/h
Spd
kts
Gust
kts
20/11:30pm 11.5 11.5 9.9 90 0.8 CALM 0 0 0 0 1019.4 1019.4 0.0
20/11:00pm 11.6 10.9 10.0 90 0.8 S 4 7 2 4 1019.7 1019.7 0.0
20/10:30pm 11.4 11.4 9.7 89 0.9 CALM 0 0 0 0 1019.8 1019.8 0.0
20/10:00pm 11.5 11.4 9.4 87 1.1 CALM 0 0 0 0 1020.0 1020.0 0.0
20/09:30pm 11.8 11.7 9.5 86 1.2 CALM 0 0 0 0 1019.9 1019.9 0.0
20/09:00pm 12.2 12.0 9.2 82 1.5 CALM 0 0 0 0 1020.0 1020.0 0.0
20/08:30pm 13.1 13.0 9.4 78 1.9 CALM 0 0 0 0 1020.0 1020.0 0.0
20/08:00pm 13.7 12.3 9.7 77 2.1 S 7 9 4 5 1019.7 1019.7 0.0
20/07:30pm 13.8 13.6 9.0 73 2.4 CALM 0 0 0 0 1019.6 1019.6 0.0
20/07:00pm 16.0 15.1 9.4 65 3.4 ESE 4 11 2 6 1019.6 1019.6 0.0
20/06:30pm 17.5 16.0 8.6 56 4.6 ENE 6 11 3 6 1019.4 1019.4 0.0
20/06:00pm 21.4 20.0 8.7 44 6.7 ENE 6 9 3 5 1019.2 1019.2 0.0
20/05:30pm 25.0 23.2 8.1 34 9.0 NE 7 11 4 6 1019.2 1019.2 0.0
20/05:00pm 27.5 25.4 6.8 27 11.0 NE 7 11 4 6 1019.1 1019.1 0.0
20/04:30pm 28.2 26.2 6.9 26 11.4 NNE 7 11 4 6 1019.3 1019.3 0.0
20/04:00pm 28.6 25.7 6.7 25 11.6 NE 11 17 6 9 1019.5 1019.5 0.0
20/03:30pm 28.6 25.4 6.7 25 11.7 N 13 19 7 10 1019.8 1019.8 0.0
20/03:00pm 28.8 25.8 7.9 27 11.4 N 13 22 7 12 1020.0 1020.0 0.0
20/02:30pm 28.6 24.9 7.8 27 11.3 N 17 24 9 13 1020.3 1020.3 0.0
20/02:00pm 27.5 24.0 7.4 28 10.7 N 15 22 8 12 1020.7 1020.7 0.0
20/01:30pm 28.3 24.8 7.0 26 11.4 N 15 26 8 14 1020.9 1020.9 0.0
20/01:00pm 27.9 24.1 7.7 28 10.9 N 17 28 9 15 1021.4 1021.4 0.0
20/12:30pm 27.9 24.3 8.2 29 10.7 N 17 32 9 17 1021.7 1021.7 0.0
20/12:00pm 26.9 24.9 8.8 32 9.9 NNE 9 17 5 9 1022.3 1022.3 0.0
20/11:30am 25.9 24.2 8.4 33 9.5 NE 7 13 4 7 1022.8 1022.8 0.0
20/11:00am 23.8 22.0 7.8 36 8.4 ENE 7 13 4 7 1023.2 1023.2 0.0
20/10:30am 21.6 19.9 7.4 40 7.4 ESE 6 7 3 4 1023.5 1023.5 0.0
20/10:00am 19.3 17.8 6.8 44 6.3 ESE 4 11 2 6 1023.9 1023.9 0.0
20/09:30am 16.3 16.4 10.2 67 3.2 CALM 0 0 0 0 1024.2 1024.2 0.0
20/09:00am 12.3 12.4 10.2 87 1.1 CALM 0 0 0 0 1024.4 1024.4 0.0
20/08:30am 9.5 9.4 9.4 99 0.0 CALM 0 0 0 0 1024.5 1024.5 0.0
20/08:00am 7.1 6.4 7.0 99 0.0 CALM 0 0 0 0 1024.6 1024.6 0.0
20/07:30am 4.1 2.8 4.0 99 0.0 CALM 0 0 0 0 1024.5 1024.5 0.0
20/07:00am 2.6 1.0 2.5 99 0.0 CALM 0 0 0 0 1024.4 1024.4 0.0
20/06:30am 2.8 1.2 2.7 99 0.0 CALM 0 0 0 0 1024.3 1024.3 0.0
20/06:00am 2.5 0.9 2.4 99 0.0 CALM 0 0 0 0 1024.2 1024.2 0.0
20/05:30am 2.6 1.0 2.5 99 0.0 CALM 0 0 0 0 1024.1 1024.1 0.0
20/05:00am 2.3 0.7 2.2 99 0.0 CALM 0 0 0 0 1024.2 1024.2 0.0
20/04:30am 2.3 0.7 2.2 99 0.0 CALM 0 0 0 0 1024.1 1024.1 0.0
20/04:00am 2.8 1.2 2.7 99 0.0 CALM 0 0 0 0 1024.2 1024.2 0.0
20/03:30am 2.8 1.2 2.7 99 0.0 CALM 0 0 0 0 1024.2 1024.2 0.0
20/03:00am 3.5 2.1 3.4 99 0.0 CALM 0 0 0 0 1024.3 1024.3 0.0
20/02:30am 3.4 2.0 3.3 99 0.0 CALM 0 0 0 0 1024.4 1024.4 0.0
20/02:00am 3.8 2.4 3.7 99 0.0 CALM 0 0 0 0 1024.6 1024.6 0.0
20/01:30am 3.9 2.5 3.8 99 0.0 CALM 0 0 0 0 1024.7 1024.7 0.0
20/01:00am 4.4 3.1 4.3 99 0.0 CALM 0 0 0 0 1024.8 1024.8 0.0
20/12:30am 4.5 3.2 4.2 98 0.1 CALM 0 0 0 0 1024.9 1024.9 0.0
20/12:00am 4.9 3.7 4.5 97 0.2 CALM 0 0 0 0 1025.2 1025.2 0.0
 
Date/Time
EST
Temp
°C
App
Temp
°C
Dew
Point
°C
Rel
Hum
%
Delta-T
°C
Wind Press
QNH
hPa
Press
MSL
hPa
Rain since
9am
mm
Dir  Spd
km/h
Gust
km/h
Spd
kts
Gust
kts
19/11:30pm 6.0 5.0 5.7 98 0.1 CALM 0 0 0 0 1025.2 1025.2 0.0
19/11:00pm 6.1 5.1 5.5 96 0.3 CALM 0 0 0 0 1025.2 1025.2 0.0
19/10:30pm 6.8 5.9 6.1 95 0.3 CALM 0 0 0 0 1025.4 1025.4 0.0
19/10:00pm 7.5 6.7 6.6 94 0.4 CALM 0 0 0 0 1025.4 1025.4 0.0
19/09:30pm 7.4 6.4 5.7 89 0.8 CALM 0 0 0 0 1025.4 1025.4 0.0
19/09:00pm 8.9 8.2 6.9 87 0.9 CALM 0 0 0 0 1025.2 1025.2 0.0
19/08:30pm 10.0 9.3 7.1 82 1.4 CALM 0 0 0 0 1024.9 1024.9 0.0

Latest Capital City Observations: Canberra | Sydney | Melbourne | Brisbane | Adelaide | Perth | Hobart | Darwin

Other formats

Comma delimited format used in spreadsheet applications
http://www.bom.gov.au/fwo/IDV60901/IDV60901.94864.axf

JavaScript Object Notation format (JSON) in row-major order
http://www.bom.gov.au/fwo/IDV60901/IDV60901.94864.json

Data quality

Most of these data are generated automatically and are frequently updated. Quality checks on data are not normally performed. It is possible for incorrect values to appear. Refer to information at About Latest Weather Observations and please check the disclaimer before using these data.